sensor_id;sensor_type;location;lat;lon;timestamp;P1;durP1;ratioP1;P2;durP2;ratioP2
30934;SDS011;51033;42.648;23.292;2022-12-04T00:00:34;3.58;;;2.63;;
30934;SDS011;51033;42.648;23.292;2022-12-04T00:03:00;3.17;;;2.75;;
30934;SDS011;51033;42.648;23.292;2022-12-04T00:05:25;3.65;;;2.65;;
30934;SDS011;51033;42.648;23.292;2022-12-04T00:07:50;4.13;;;2.80;;
30934;SDS011;51033;42.648;23.292;2022-12-04T00:10:16;3.58;;;2.42;;
30934;SDS011;51033;42.648;23.292;2022-12-04T00:12:41;3.47;;;2.42;;
30934;SDS011;51033;42.648;23.292;2022-12-04T00:15:07;3.33;;;2.28;;
30934;SDS011;51033;42.648;23.292;2022-12-04T00:17:33;4.57;;;2.38;;
30934;SDS011;51033;42.648;23.292;2022-12-04T00:19:59;8.60;;;3.58;;
30934;SDS011;51033;42.648;23.292;2022-12-04T00:22:24;4.20;;;2.83;;
30934;SDS011;51033;42.648;23.292;2022-12-04T00:24:50;6.55;;;3.90;;
30934;SDS011;51033;42.648;23.292;2022-12-04T00:27:15;6.13;;;3.22;;
30934;SDS011;51033;42.648;23.292;2022-12-04T00:29:40;4.45;;;3.22;;
30934;SDS011;51033;42.648;23.292;2022-12-04T00:32:06;3.63;;;3.08;;
30934;SDS011;51033;42.648;23.292;2022-12-04T00:34:31;5.82;;;3.15;;
30934;SDS011;51033;42.648;23.292;2022-12-04T00:36:56;4.82;;;3.10;;
30934;SDS011;51033;42.648;23.292;2022-12-04T00:39:22;5.07;;;3.13;;
30934;SDS011;51033;42.648;23.292;2022-12-04T00:41:47;4.47;;;3.60;;
30934;SDS011;51033;42.648;23.292;2022-12-04T00:44:12;4.30;;;3.35;;
30934;SDS011;51033;42.648;23.292;2022-12-04T00:46:38;4.80;;;3.20;;
30934;SDS011;51033;42.648;23.292;2022-12-04T00:49:03;4.60;;;2.47;;
30934;SDS011;51033;42.648;23.292;2022-12-04T00:51:29;3.08;;;2.78;;
30934;SDS011;51033;42.648;23.292;2022-12-04T00:53:54;3.85;;;2.67;;
30934;SDS011;51033;42.648;23.292;2022-12-04T00:56:21;4.28;;;2.92;;
30934;SDS011;51033;42.648;23.292;2022-12-04T00:58:51;3.72;;;2.78;;
30934;SDS011;51033;42.648;23.292;2022-12-04T01:01:18;3.85;;;2.92;;
30934;SDS011;51033;42.648;23.292;2022-12-04T01:03:45;3.53;;;2.80;;
30934;SDS011;51033;42.648;23.292;2022-12-04T01:06:24;4.70;;;2.83;;
30934;SDS011;51033;42.648;23.292;2022-12-04T01:08:51;3.88;;;2.70;;
30934;SDS011;51033;42.648;23.292;2022-12-04T01:11:19;3.10;;;2.60;;
30934;SDS011;51033;42.648;23.292;2022-12-04T01:13:45;5.55;;;2.75;;
30934;SDS011;51033;42.648;23.292;2022-12-04T01:16:22;3.65;;;3.08;;
30934;SDS011;51033;42.648;23.292;2022-12-04T01:18:49;3.45;;;2.42;;
30934;SDS011;51033;42.648;23.292;2022-12-04T01:21:15;3.95;;;3.30;;
30934;SDS011;51033;42.648;23.292;2022-12-04T01:23:41;5.93;;;3.25;;
30934;SDS011;51033;42.648;23.292;2022-12-04T01:26:08;5.32;;;3.75;;
30934;SDS011;51033;42.648;23.292;2022-12-04T01:28:34;9.30;;;6.03;;
30934;SDS011;51033;42.648;23.292;2022-12-04T01:31:00;10.25;;;6.55;;
30934;SDS011;51033;42.648;23.292;2022-12-04T01:33:28;10.00;;;6.65;;
30934;SDS011;51033;42.648;23.292;2022-12-04T01:35:55;13.00;;;6.80;;
30934;SDS011;51033;42.648;23.292;2022-12-04T01:38:21;12.50;;;8.15;;
30934;SDS011;51033;42.648;23.292;2022-12-04T01:40:48;14.80;;;8.45;;
30934;SDS011;51033;42.648;23.292;2022-12-04T01:43:13;16.63;;;10.20;;
30934;SDS011;51033;42.648;23.292;2022-12-04T01:46:01;18.38;;;8.70;;
30934;SDS011;51033;42.648;23.292;2022-12-04T01:48:27;16.10;;;7.90;;
30934;SDS011;51033;42.648;23.292;2022-12-04T01:53:49;11.73;;;6.75;;
30934;SDS011;51033;42.648;23.292;2022-12-04T01:56:18;11.45;;;7.53;;
30934;SDS011;51033;42.648;23.292;2022-12-04T01:58:51;11.05;;;7.50;;
30934;SDS011;51033;42.648;23.292;2022-12-04T02:01:21;10.45;;;6.88;;
30934;SDS011;51033;42.648;23.292;2022-12-04T02:03:46;8.68;;;6.93;;
30934;SDS011;51033;42.648;23.292;2022-12-04T02:06:12;9.60;;;7.10;;
30934;SDS011;51033;42.648;23.292;2022-12-04T02:08:38;10.93;;;7.95;;
30934;SDS011;51033;42.648;23.292;2022-12-04T02:11:07;18.55;;;8.02;;
30934;SDS011;51033;42.648;23.292;2022-12-04T02:18:56;10.88;;;6.70;;
30934;SDS011;51033;42.648;23.292;2022-12-04T02:21:33;7.38;;;5.93;;
30934;SDS011;51033;42.648;23.292;2022-12-04T02:24:27;7.18;;;5.63;;
30934;SDS011;51033;42.648;23.292;2022-12-04T02:27:05;5.85;;;4.22;;
30934;SDS011;51033;42.648;23.292;2022-12-04T02:30:03;8.68;;;5.68;;
30934;SDS011;51033;42.648;23.292;2022-12-04T02:32:38;11.13;;;6.72;;
30934;SDS011;51033;42.648;23.292;2022-12-04T02:35:14;14.00;;;10.77;;
30934;SDS011;51033;42.648;23.292;2022-12-04T02:37:44;13.40;;;8.38;;
30934;SDS011;51033;42.648;23.292;2022-12-04T02:40:19;10.55;;;9.30;;
30934;SDS011;51033;42.648;23.292;2022-12-04T02:43:12;8.73;;;7.82;;
30934;SDS011;51033;42.648;23.292;2022-12-04T02:45:39;6.60;;;4.72;;
30934;SDS011;51033;42.648;23.292;2022-12-04T02:48:10;5.22;;;4.32;;
30934;SDS011;51033;42.648;23.292;2022-12-04T02:50:42;5.32;;;4.10;;
30934;SDS011;51033;42.648;23.292;2022-12-04T02:53:12;7.45;;;4.65;;
30934;SDS011;51033;42.648;23.292;2022-12-04T02:55:52;14.23;;;5.25;;
30934;SDS011;51033;42.648;23.292;2022-12-04T02:59:04;10.77;;;5.32;;
30934;SDS011;51033;42.648;23.292;2022-12-04T03:01:15;5.03;;;3.40;;
30934;SDS011;51033;42.648;23.292;2022-12-04T03:06:18;3.73;;;2.83;;
30934;SDS011;51033;42.648;23.292;2022-12-04T03:08:50;4.50;;;3.05;;
30934;SDS011;51033;42.648;23.292;2022-12-04T03:11:18;5.22;;;2.90;;
30934;SDS011;51033;42.648;23.292;2022-12-04T03:13:48;3.85;;;3.30;;
30934;SDS011;51033;42.648;23.292;2022-12-04T03:16:18;4.38;;;3.25;;
30934;SDS011;51033;42.648;23.292;2022-12-04T03:21:37;4.60;;;3.13;;
30934;SDS011;51033;42.648;23.292;2022-12-04T03:24:11;4.43;;;3.35;;
30934;SDS011;51033;42.648;23.292;2022-12-04T03:26:53;5.32;;;3.03;;
30934;SDS011;51033;42.648;23.292;2022-12-04T03:29:29;3.15;;;2.42;;
30934;SDS011;51033;42.648;23.292;2022-12-04T03:34:46;4.55;;;3.05;;
30934;SDS011;51033;42.648;23.292;2022-12-04T03:40:22;4.88;;;3.50;;
30934;SDS011;51033;42.648;23.292;2022-12-04T03:50:56;5.05;;;3.25;;
30934;SDS011;51033;42.648;23.292;2022-12-04T03:56:05;5.80;;;3.53;;
30934;SDS011;51033;42.648;23.292;2022-12-04T03:58:38;5.32;;;3.45;;
30934;SDS011;51033;42.648;23.292;2022-12-04T04:01:08;4.88;;;3.17;;
30934;SDS011;51033;42.648;23.292;2022-12-04T04:03:38;4.45;;;3.35;;
30934;SDS011;51033;42.648;23.292;2022-12-04T04:06:11;4.97;;;3.10;;
30934;SDS011;51033;42.648;23.292;2022-12-04T04:08:42;4.63;;;2.90;;
30934;SDS011;51033;42.648;23.292;2022-12-04T04:11:12;5.35;;;3.47;;
30934;SDS011;51033;42.648;23.292;2022-12-04T04:13:46;4.22;;;3.10;;
30934;SDS011;51033;42.648;23.292;2022-12-04T04:16:35;4.25;;;3.35;;
30934;SDS011;51033;42.648;23.292;2022-12-04T04:19:23;4.10;;;2.83;;
30934;SDS011;51033;42.648;23.292;2022-12-04T04:22:11;2.53;;;2.33;;
30934;SDS011;51033;42.648;23.292;2022-12-04T04:27:49;3.10;;;2.08;;
30934;SDS011;51033;42.648;23.292;2022-12-04T04:30:17;2.47;;;2.10;;
30934;SDS011;51033;42.648;23.292;2022-12-04T04:32:51;2.83;;;2.33;;
30934;SDS011;51033;42.648;23.292;2022-12-04T04:35:27;3.70;;;2.42;;
30934;SDS011;51033;42.648;23.292;2022-12-04T04:38:14;2.60;;;1.95;;
30934;SDS011;51033;42.648;23.292;2022-12-04T04:43:15;5.90;;;2.65;;
30934;SDS011;51033;42.648;23.292;2022-12-04T04:45:56;2.70;;;2.35;;
30934;SDS011;51033;42.648;23.292;2022-12-04T04:48:29;4.43;;;2.28;;
30934;SDS011;51033;42.648;23.292;2022-12-04T04:50:57;3.42;;;2.15;;
30934;SDS011;51033;42.648;23.292;2022-12-04T04:53:25;5.65;;;2.30;;
30934;SDS011;51033;42.648;23.292;2022-12-04T04:56:03;4.47;;;2.92;;
30934;SDS011;51033;42.648;23.292;2022-12-04T04:58:30;4.90;;;2.78;;
30934;SDS011;51033;42.648;23.292;2022-12-04T05:01:06;4.15;;;2.97;;
30934;SDS011;51033;42.648;23.292;2022-12-04T05:03:35;14.18;;;6.60;;
30934;SDS011;51033;42.648;23.292;2022-12-04T05:06:00;7.40;;;3.90;;
30934;SDS011;51033;42.648;23.292;2022-12-04T05:08:26;12.27;;;6.95;;
30934;SDS011;51033;42.648;23.292;2022-12-04T05:10:51;6.80;;;3.40;;
30934;SDS011;51033;42.648;23.292;2022-12-04T05:13:17;4.68;;;3.10;;
30934;SDS011;51033;42.648;23.292;2022-12-04T05:15:43;8.93;;;3.72;;
30934;SDS011;51033;42.648;23.292;2022-12-04T05:18:09;6.10;;;4.03;;
30934;SDS011;51033;42.648;23.292;2022-12-04T05:20:38;5.22;;;3.45;;
30934;SDS011;51033;42.648;23.292;2022-12-04T05:23:04;6.80;;;4.55;;
30934;SDS011;51033;42.648;23.292;2022-12-04T05:25:29;8.98;;;3.83;;
30934;SDS011;51033;42.648;23.292;2022-12-04T05:27:55;5.05;;;3.70;;
30934;SDS011;51033;42.648;23.292;2022-12-04T05:30:20;3.90;;;2.88;;
30934;SDS011;51033;42.648;23.292;2022-12-04T05:32:46;7.80;;;3.95;;
30934;SDS011;51033;42.648;23.292;2022-12-04T05:35:11;8.10;;;4.93;;
30934;SDS011;51033;42.648;23.292;2022-12-04T05:37:37;5.10;;;3.40;;
30934;SDS011;51033;42.648;23.292;2022-12-04T05:40:04;4.10;;;3.05;;
30934;SDS011;51033;42.648;23.292;2022-12-04T05:42:31;3.55;;;2.47;;
30934;SDS011;51033;42.648;23.292;2022-12-04T05:44:56;3.10;;;2.40;;
30934;SDS011;51033;42.648;23.292;2022-12-04T05:47:22;2.80;;;2.10;;
30934;SDS011;51033;42.648;23.292;2022-12-04T05:49:47;4.88;;;2.40;;
30934;SDS011;51033;42.648;23.292;2022-12-04T05:52:13;4.40;;;2.28;;
30934;SDS011;51033;42.648;23.292;2022-12-04T05:54:38;3.38;;;2.33;;
30934;SDS011;51033;42.648;23.292;2022-12-04T05:57:04;3.60;;;2.30;;
30934;SDS011;51033;42.648;23.292;2022-12-04T05:59:29;3.15;;;2.17;;
30934;SDS011;51033;42.648;23.292;2022-12-04T06:01:55;3.63;;;2.22;;
30934;SDS011;51033;42.648;23.292;2022-12-04T06:04:20;4.63;;;1.92;;
30934;SDS011;51033;42.648;23.292;2022-12-04T06:06:46;3.45;;;2.50;;
30934;SDS011;51033;42.648;23.292;2022-12-04T06:09:11;4.65;;;2.40;;
30934;SDS011;51033;42.648;23.292;2022-12-04T06:11:38;3.33;;;2.35;;
30934;SDS011;51033;42.648;23.292;2022-12-04T06:14:05;3.25;;;2.38;;
30934;SDS011;51033;42.648;23.292;2022-12-04T06:16:33;2.42;;;1.90;;
30934;SDS011;51033;42.648;23.292;2022-12-04T06:19:01;4.05;;;2.40;;
30934;SDS011;51033;42.648;23.292;2022-12-04T06:21:38;4.10;;;2.58;;
30934;SDS011;51033;42.648;23.292;2022-12-04T06:24:04;4.57;;;2.63;;
30934;SDS011;51033;42.648;23.292;2022-12-04T06:26:34;3.47;;;2.58;;
30934;SDS011;51033;42.648;23.292;2022-12-04T06:28:59;4.25;;;2.58;;
30934;SDS011;51033;42.648;23.292;2022-12-04T06:31:26;5.97;;;2.72;;
30934;SDS011;51033;42.648;23.292;2022-12-04T06:33:53;2.83;;;2.22;;
30934;SDS011;51033;42.648;23.292;2022-12-04T06:36:19;8.27;;;3.08;;
30934;SDS011;51033;42.648;23.292;2022-12-04T06:38:49;5.50;;;3.42;;
30934;SDS011;51033;42.648;23.292;2022-12-04T06:41:16;7.32;;;3.60;;
30934;SDS011;51033;42.648;23.292;2022-12-04T06:43:43;9.90;;;5.05;;
30934;SDS011;51033;42.648;23.292;2022-12-04T06:46:13;10.25;;;5.55;;
30934;SDS011;51033;42.648;23.292;2022-12-04T06:48:40;12.25;;;5.45;;
30934;SDS011;51033;42.648;23.292;2022-12-04T06:51:07;10.98;;;6.45;;
30934;SDS011;51033;42.648;23.292;2022-12-04T06:53:35;14.35;;;6.28;;
30934;SDS011;51033;42.648;23.292;2022-12-04T06:56:02;11.15;;;5.05;;
30934;SDS011;51033;42.648;23.292;2022-12-04T06:58:30;11.68;;;5.13;;
30934;SDS011;51033;42.648;23.292;2022-12-04T07:00:56;9.90;;;5.35;;
30934;SDS011;51033;42.648;23.292;2022-12-04T07:03:22;10.32;;;5.05;;
30934;SDS011;51033;42.648;23.292;2022-12-04T07:05:48;8.30;;;4.95;;
30934;SDS011;51033;42.648;23.292;2022-12-04T07:08:14;7.90;;;4.55;;
30934;SDS011;51033;42.648;23.292;2022-12-04T07:10:40;7.85;;;5.10;;
30934;SDS011;51033;42.648;23.292;2022-12-04T07:13:06;7.82;;;4.90;;
30934;SDS011;51033;42.648;23.292;2022-12-04T07:15:33;7.82;;;4.30;;
30934;SDS011;51033;42.648;23.292;2022-12-04T07:17:59;8.02;;;4.65;;
30934;SDS011;51033;42.648;23.292;2022-12-04T07:20:25;8.40;;;5.35;;
30934;SDS011;51033;42.648;23.292;2022-12-04T07:22:51;6.90;;;4.47;;
30934;SDS011;51033;42.648;23.292;2022-12-04T07:25:17;6.32;;;4.60;;
30934;SDS011;51033;42.648;23.292;2022-12-04T07:27:43;13.00;;;5.70;;
30934;SDS011;51033;42.648;23.292;2022-12-04T07:30:08;9.70;;;4.30;;
30934;SDS011;51033;42.648;23.292;2022-12-04T07:32:35;5.22;;;3.50;;
30934;SDS011;51033;42.648;23.292;2022-12-04T07:35:00;7.68;;;3.50;;
30934;SDS011;51033;42.648;23.292;2022-12-04T07:37:26;7.82;;;3.70;;
30934;SDS011;51033;42.648;23.292;2022-12-04T07:39:51;5.45;;;4.25;;
30934;SDS011;51033;42.648;23.292;2022-12-04T07:42:17;8.02;;;4.50;;
30934;SDS011;51033;42.648;23.292;2022-12-04T07:44:43;6.55;;;4.38;;
30934;SDS011;51033;42.648;23.292;2022-12-04T07:47:08;7.93;;;4.22;;
30934;SDS011;51033;42.648;23.292;2022-12-04T07:49:34;5.88;;;3.97;;
30934;SDS011;51033;42.648;23.292;2022-12-04T07:51:59;7.72;;;4.43;;
30934;SDS011;51033;42.648;23.292;2022-12-04T07:54:24;8.50;;;4.43;;
30934;SDS011;51033;42.648;23.292;2022-12-04T07:56:50;7.35;;;5.43;;
30934;SDS011;51033;42.648;23.292;2022-12-04T07:59:15;6.70;;;4.55;;
30934;SDS011;51033;42.648;23.292;2022-12-04T08:01:40;10.90;;;5.20;;
30934;SDS011;51033;42.648;23.292;2022-12-04T08:04:06;4.75;;;3.38;;
30934;SDS011;51033;42.648;23.292;2022-12-04T08:06:32;6.40;;;3.55;;
30934;SDS011;51033;42.648;23.292;2022-12-04T08:08:59;6.57;;;3.75;;
30934;SDS011;51033;42.648;23.292;2022-12-04T08:11:25;4.15;;;2.90;;
30934;SDS011;51033;42.648;23.292;2022-12-04T08:13:53;8.48;;;4.90;;
30934;SDS011;51033;42.648;23.292;2022-12-04T08:16:20;7.28;;;3.92;;
30934;SDS011;51033;42.648;23.292;2022-12-04T08:18:45;6.80;;;3.53;;
30934;SDS011;51033;42.648;23.292;2022-12-04T08:21:13;5.35;;;3.83;;
30934;SDS011;51033;42.648;23.292;2022-12-04T08:23:41;8.05;;;3.17;;
30934;SDS011;51033;42.648;23.292;2022-12-04T08:26:07;6.40;;;3.42;;
30934;SDS011;51033;42.648;23.292;2022-12-04T08:28:34;6.97;;;4.07;;
30934;SDS011;51033;42.648;23.292;2022-12-04T08:31:04;4.13;;;3.17;;
30934;SDS011;51033;42.648;23.292;2022-12-04T08:33:35;4.10;;;3.65;;
30934;SDS011;51033;42.648;23.292;2022-12-04T08:36:01;4.50;;;2.80;;
30934;SDS011;51033;42.648;23.292;2022-12-04T08:38:30;6.18;;;3.15;;
30934;SDS011;51033;42.648;23.292;2022-12-04T08:40:59;5.15;;;2.45;;
30934;SDS011;51033;42.648;23.292;2022-12-04T08:43:25;5.00;;;2.55;;
30934;SDS011;51033;42.648;23.292;2022-12-04T08:45:57;4.22;;;2.22;;
30934;SDS011;51033;42.648;23.292;2022-12-04T08:48:24;3.40;;;2.33;;
30934;SDS011;51033;42.648;23.292;2022-12-04T08:50:50;3.95;;;2.28;;
30934;SDS011;51033;42.648;23.292;2022-12-04T08:53:16;3.15;;;2.63;;
30934;SDS011;51033;42.648;23.292;2022-12-04T08:55:41;3.92;;;1.98;;
30934;SDS011;51033;42.648;23.292;2022-12-04T08:58:07;4.90;;;3.08;;
30934;SDS011;51033;42.648;23.292;2022-12-04T09:00:32;5.10;;;2.50;;
30934;SDS011;51033;42.648;23.292;2022-12-04T09:02:57;6.13;;;2.72;;
30934;SDS011;51033;42.648;23.292;2022-12-04T09:05:23;3.65;;;2.30;;
30934;SDS011;51033;42.648;23.292;2022-12-04T09:07:48;4.60;;;2.55;;
30934;SDS011;51033;42.648;23.292;2022-12-04T09:10:14;3.95;;;2.83;;
30934;SDS011;51033;42.648;23.292;2022-12-04T09:12:39;3.25;;;2.92;;
30934;SDS011;51033;42.648;23.292;2022-12-04T09:15:04;5.18;;;2.35;;
30934;SDS011;51033;42.648;23.292;2022-12-04T09:17:30;7.35;;;2.20;;
30934;SDS011;51033;42.648;23.292;2022-12-04T09:19:56;7.38;;;2.47;;
30934;SDS011;51033;42.648;23.292;2022-12-04T09:22:21;2.53;;;1.95;;
30934;SDS011;51033;42.648;23.292;2022-12-04T09:24:46;5.25;;;2.05;;
30934;SDS011;51033;42.648;23.292;2022-12-04T09:27:12;2.95;;;2.45;;
30934;SDS011;51033;42.648;23.292;2022-12-04T09:29:37;3.45;;;2.65;;
30934;SDS011;51033;42.648;23.292;2022-12-04T09:32:03;3.50;;;2.42;;
30934;SDS011;51033;42.648;23.292;2022-12-04T09:34:28;3.00;;;2.35;;
30934;SDS011;51033;42.648;23.292;2022-12-04T09:36:54;9.05;;;4.65;;
30934;SDS011;51033;42.648;23.292;2022-12-04T09:39:19;3.47;;;2.60;;
30934;SDS011;51033;42.648;23.292;2022-12-04T09:44:35;3.22;;;2.22;;
30934;SDS011;51033;42.648;23.292;2022-12-04T09:47:04;5.43;;;3.00;;
30934;SDS011;51033;42.648;23.292;2022-12-04T09:49:40;4.47;;;2.78;;
30934;SDS011;51033;42.648;23.292;2022-12-04T09:54:54;5.25;;;2.70;;
30934;SDS011;51033;42.648;23.292;2022-12-04T09:57:21;2.95;;;2.40;;
30934;SDS011;51033;42.648;23.292;2022-12-04T09:59:53;5.50;;;3.13;;
30934;SDS011;51033;42.648;23.292;2022-12-04T10:05:04;5.33;;;3.13;;
30934;SDS011;51033;42.648;23.292;2022-12-04T10:07:43;3.90;;;2.90;;
30934;SDS011;51033;42.648;23.292;2022-12-04T10:10:40;4.47;;;2.92;;
30934;SDS011;51033;42.648;23.292;2022-12-04T10:15:50;6.13;;;3.95;;
30934;SDS011;51033;42.648;23.292;2022-12-04T10:18:40;6.20;;;2.83;;
30934;SDS011;51033;42.648;23.292;2022-12-04T10:26:15;5.30;;;3.10;;
30934;SDS011;51033;42.648;23.292;2022-12-04T10:28:44;5.35;;;3.20;;
30934;SDS011;51033;42.648;23.292;2022-12-04T10:31:15;6.40;;;3.70;;
30934;SDS011;51033;42.648;23.292;2022-12-04T10:36:12;6.53;;;3.97;;
30934;SDS011;51033;42.648;23.292;2022-12-04T10:41:49;6.28;;;3.60;;
30934;SDS011;51033;42.648;23.292;2022-12-04T10:44:25;7.82;;;3.13;;
30934;SDS011;51033;42.648;23.292;2022-12-04T10:46:56;3.70;;;2.63;;
30934;SDS011;51033;42.648;23.292;2022-12-04T10:51:51;4.20;;;3.55;;
30934;SDS011;51033;42.648;23.292;2022-12-04T10:56:57;4.90;;;3.15;;
30934;SDS011;51033;42.648;23.292;2022-12-04T10:59:27;5.03;;;3.25;;
30934;SDS011;51033;42.648;23.292;2022-12-04T11:04:53;4.93;;;2.95;;
30934;SDS011;51033;42.648;23.292;2022-12-04T11:07:22;5.97;;;3.65;;
30934;SDS011;51033;42.648;23.292;2022-12-04T11:10:03;9.23;;;3.53;;
30934;SDS011;51033;42.648;23.292;2022-12-04T11:12:29;7.78;;;3.95;;
30934;SDS011;51033;42.648;23.292;2022-12-04T11:15:11;6.65;;;3.63;;
30934;SDS011;51033;42.648;23.292;2022-12-04T11:17:40;5.25;;;3.00;;
30934;SDS011;51033;42.648;23.292;2022-12-04T11:20:17;8.43;;;3.42;;
30934;SDS011;51033;42.648;23.292;2022-12-04T11:22:49;9.38;;;3.90;;
30934;SDS011;51033;42.648;23.292;2022-12-04T11:25:20;4.30;;;3.38;;
30934;SDS011;51033;42.648;23.292;2022-12-04T11:27:48;7.07;;;4.53;;
30934;SDS011;51033;42.648;23.292;2022-12-04T11:30:20;5.90;;;3.60;;
30934;SDS011;51033;42.648;23.292;2022-12-04T11:32:58;8.10;;;3.55;;
30934;SDS011;51033;42.648;23.292;2022-12-04T11:35:25;10.52;;;4.90;;
30934;SDS011;51033;42.648;23.292;2022-12-04T11:37:53;3.97;;;2.95;;
30934;SDS011;51033;42.648;23.292;2022-12-04T11:40:49;7.70;;;3.88;;
30934;SDS011;51033;42.648;23.292;2022-12-04T11:43:17;6.35;;;4.57;;
30934;SDS011;51033;42.648;23.292;2022-12-04T11:45:53;7.63;;;4.30;;
30934;SDS011;51033;42.648;23.292;2022-12-04T11:48:24;6.32;;;4.07;;
30934;SDS011;51033;42.648;23.292;2022-12-04T11:56:44;7.63;;;4.65;;
30934;SDS011;51033;42.648;23.292;2022-12-04T12:16:11;11.05;;;5.70;;
30934;SDS011;51033;42.648;23.292;2022-12-04T12:18:59;4.95;;;3.78;;
30934;SDS011;51033;42.648;23.292;2022-12-04T12:21:52;7.20;;;4.70;;
30934;SDS011;51033;42.648;23.292;2022-12-04T12:24:45;6.05;;;4.30;;
30934;SDS011;51033;42.648;23.292;2022-12-04T12:35:18;6.60;;;4.15;;
30934;SDS011;51033;42.648;23.292;2022-12-04T12:37:50;9.90;;;5.20;;
30934;SDS011;51033;42.648;23.292;2022-12-04T12:40:24;5.43;;;4.05;;
30934;SDS011;51033;42.648;23.292;2022-12-04T12:48:25;7.85;;;5.80;;
30934;SDS011;51033;42.648;23.292;2022-12-04T12:51:14;8.88;;;5.15;;
30934;SDS011;51033;42.648;23.292;2022-12-04T12:53:59;6.38;;;3.65;;
30934;SDS011;51033;42.648;23.292;2022-12-04T12:56:40;7.60;;;4.95;;
30934;SDS011;51033;42.648;23.292;2022-12-04T12:59:13;7.10;;;4.63;;
30934;SDS011;51033;42.648;23.292;2022-12-04T13:01:48;7.57;;;5.18;;
30934;SDS011;51033;42.648;23.292;2022-12-04T13:07:19;8.30;;;4.93;;
30934;SDS011;51033;42.648;23.292;2022-12-04T13:12:26;8.40;;;4.72;;
30934;SDS011;51033;42.648;23.292;2022-12-04T13:14:52;7.85;;;4.65;;
30934;SDS011;51033;42.648;23.292;2022-12-04T13:17:34;7.97;;;4.93;;
30934;SDS011;51033;42.648;23.292;2022-12-04T13:20:04;9.23;;;5.20;;
30934;SDS011;51033;42.648;23.292;2022-12-04T13:22:42;7.82;;;5.43;;
30934;SDS011;51033;42.648;23.292;2022-12-04T13:26:09;7.90;;;5.25;;
30934;SDS011;51033;42.648;23.292;2022-12-04T13:31:24;7.30;;;5.70;;
30934;SDS011;51033;42.648;23.292;2022-12-04T13:39:38;7.57;;;5.05;;
30934;SDS011;51033;42.648;23.292;2022-12-04T13:42:25;9.32;;;5.68;;
30934;SDS011;51033;42.648;23.292;2022-12-04T13:44:57;9.95;;;5.80;;
30934;SDS011;51033;42.648;23.292;2022-12-04T13:47:27;11.07;;;5.80;;
30934;SDS011;51033;42.648;23.292;2022-12-04T13:52:44;6.00;;;3.90;;
30934;SDS011;51033;42.648;23.292;2022-12-04T13:55:34;7.10;;;5.40;;
30934;SDS011;51033;42.648;23.292;2022-12-04T13:58:22;10.52;;;7.10;;
30934;SDS011;51033;42.648;23.292;2022-12-04T14:01:07;9.30;;;5.30;;
30934;SDS011;51033;42.648;23.292;2022-12-04T14:03:49;7.68;;;4.78;;
30934;SDS011;51033;42.648;23.292;2022-12-04T14:06:53;8.23;;;5.60;;
30934;SDS011;51033;42.648;23.292;2022-12-04T14:09:23;8.60;;;5.63;;
30934;SDS011;51033;42.648;23.292;2022-12-04T14:12:01;7.50;;;5.82;;
30934;SDS011;51033;42.648;23.292;2022-12-04T14:19:59;6.15;;;4.38;;
30934;SDS011;51033;42.648;23.292;2022-12-04T14:25:53;5.13;;;3.55;;
30934;SDS011;51033;42.648;23.292;2022-12-04T14:33:51;7.97;;;4.63;;
30934;SDS011;51033;42.648;23.292;2022-12-04T14:36:27;5.47;;;4.05;;
30934;SDS011;51033;42.648;23.292;2022-12-04T14:39:03;9.77;;;4.80;;
30934;SDS011;51033;42.648;23.292;2022-12-04T14:41:35;5.75;;;4.43;;
30934;SDS011;51033;42.648;23.292;2022-12-04T14:44:00;6.35;;;3.72;;
30934;SDS011;51033;42.648;23.292;2022-12-04T14:59:47;5.13;;;3.65;;
30934;SDS011;51033;42.648;23.292;2022-12-04T15:02:16;6.80;;;3.50;;
30934;SDS011;51033;42.648;23.292;2022-12-04T15:04:43;11.32;;;4.35;;
30934;SDS011;51033;42.648;23.292;2022-12-04T15:07:21;8.60;;;4.30;;
30934;SDS011;51033;42.648;23.292;2022-12-04T15:09:59;4.97;;;2.90;;
30934;SDS011;51033;42.648;23.292;2022-12-04T15:12:45;6.20;;;4.03;;
30934;SDS011;51033;42.648;23.292;2022-12-04T15:15:19;7.53;;;4.15;;
30934;SDS011;51033;42.648;23.292;2022-12-04T15:20:39;6.32;;;3.83;;
30934;SDS011;51033;42.648;23.292;2022-12-04T15:23:28;8.25;;;4.28;;
30934;SDS011;51033;42.648;23.292;2022-12-04T15:26:12;6.68;;;3.95;;
30934;SDS011;51033;42.648;23.292;2022-12-04T15:28:57;9.60;;;4.32;;
30934;SDS011;51033;42.648;23.292;2022-12-04T15:31:34;7.93;;;4.97;;
30934;SDS011;51033;42.648;23.292;2022-12-04T15:34:07;8.25;;;4.68;;
30934;SDS011;51033;42.648;23.292;2022-12-04T15:39:20;8.98;;;4.78;;
30934;SDS011;51033;42.648;23.292;2022-12-04T15:41:48;7.85;;;5.38;;
30934;SDS011;51033;42.648;23.292;2022-12-04T15:44:24;9.75;;;5.72;;
30934;SDS011;51033;42.648;23.292;2022-12-04T15:46:53;11.95;;;6.18;;
30934;SDS011;51033;42.648;23.292;2022-12-04T15:49:23;10.98;;;6.50;;
30934;SDS011;51033;42.648;23.292;2022-12-04T15:59:56;6.10;;;3.83;;
30934;SDS011;51033;42.648;23.292;2022-12-04T16:02:32;6.85;;;4.60;;
30934;SDS011;51033;42.648;23.292;2022-12-04T16:10:42;8.35;;;4.68;;
30934;SDS011;51033;42.648;23.292;2022-12-04T16:13:25;7.43;;;3.83;;
30934;SDS011;51033;42.648;23.292;2022-12-04T16:15:52;7.72;;;4.65;;
30934;SDS011;51033;42.648;23.292;2022-12-04T16:18:22;5.28;;;3.95;;
30934;SDS011;51033;42.648;23.292;2022-12-04T16:20:48;7.13;;;4.65;;
30934;SDS011;51033;42.648;23.292;2022-12-04T16:23:13;10.27;;;5.07;;
30934;SDS011;51033;42.648;23.292;2022-12-04T16:25:40;8.05;;;5.20;;
30934;SDS011;51033;42.648;23.292;2022-12-04T16:28:05;8.82;;;5.68;;
30934;SDS011;51033;42.648;23.292;2022-12-04T16:30:31;10.95;;;5.85;;
30934;SDS011;51033;42.648;23.292;2022-12-04T16:32:59;13.23;;;6.03;;
30934;SDS011;51033;42.648;23.292;2022-12-04T16:35:24;8.50;;;5.82;;
30934;SDS011;51033;42.648;23.292;2022-12-04T16:37:50;7.72;;;5.45;;
30934;SDS011;51033;42.648;23.292;2022-12-04T16:40:15;16.23;;;10.30;;
30934;SDS011;51033;42.648;23.292;2022-12-04T16:42:41;15.25;;;7.32;;
30934;SDS011;51033;42.648;23.292;2022-12-04T16:45:27;10.48;;;5.32;;
30934;SDS011;51033;42.648;23.292;2022-12-04T16:47:55;13.48;;;7.68;;
30934;SDS011;51033;42.648;23.292;2022-12-04T16:50:22;16.85;;;6.72;;
30934;SDS011;51033;42.648;23.292;2022-12-04T16:52:48;13.43;;;7.00;;
30934;SDS011;51033;42.648;23.292;2022-12-04T16:57:50;9.70;;;6.75;;
30934;SDS011;51033;42.648;23.292;2022-12-04T17:00:16;13.82;;;8.05;;
30934;SDS011;51033;42.648;23.292;2022-12-04T17:02:43;14.43;;;8.43;;
30934;SDS011;51033;42.648;23.292;2022-12-04T17:05:16;17.23;;;8.25;;
30934;SDS011;51033;42.648;23.292;2022-12-04T17:07:46;12.48;;;7.22;;
30934;SDS011;51033;42.648;23.292;2022-12-04T17:10:12;14.75;;;8.13;;
30934;SDS011;51033;42.648;23.292;2022-12-04T17:12:39;14.18;;;8.48;;
30934;SDS011;51033;42.648;23.292;2022-12-04T17:15:05;30.15;;;13.43;;
30934;SDS011;51033;42.648;23.292;2022-12-04T17:17:32;23.08;;;13.75;;
30934;SDS011;51033;42.648;23.292;2022-12-04T17:19:57;17.17;;;11.02;;
30934;SDS011;51033;42.648;23.292;2022-12-04T17:22:22;16.85;;;8.90;;
30934;SDS011;51033;42.648;23.292;2022-12-04T17:24:51;12.55;;;9.25;;
30934;SDS011;51033;42.648;23.292;2022-12-04T17:27:17;18.63;;;10.45;;
30934;SDS011;51033;42.648;23.292;2022-12-04T17:29:43;24.80;;;13.85;;
30934;SDS011;51033;42.648;23.292;2022-12-04T17:32:08;24.80;;;14.25;;
30934;SDS011;51033;42.648;23.292;2022-12-04T17:34:34;21.98;;;13.27;;
30934;SDS011;51033;42.648;23.292;2022-12-04T17:36:59;19.45;;;12.45;;